createdAt,value
2019-04-21T00:00:56.758Z,4.60
2019-04-21T00:04:03.764Z,4.50
2019-04-21T00:07:21.760Z,4.40
2019-04-21T00:10:30.134Z,4.30
2019-04-21T00:13:28.085Z,4.20
2019-04-21T00:16:25.584Z,4.20
2019-04-21T00:19:31.626Z,4.20
2019-04-21T00:22:44.050Z,4.20
2019-04-21T00:25:52.947Z,4.10
2019-04-21T00:29:09.114Z,4.00
2019-04-21T00:32:06.761Z,3.90
2019-04-21T00:35:03.116Z,3.90
2019-04-21T00:38:25.253Z,4.00
2019-04-21T00:41:33.302Z,4.10
2019-04-21T00:44:25.674Z,4.10
2019-04-21T00:47:38.825Z,4.10
2019-04-21T00:51:03.954Z,4.00
2019-04-21T00:54:04.425Z,3.90
2019-04-21T00:57:05.641Z,4.00
2019-04-21T01:00:10.621Z,4.00
2019-04-21T01:03:14.668Z,3.90
2019-04-21T01:06:22.621Z,4.00
2019-04-21T01:09:19.826Z,4.10
2019-04-21T01:12:28.283Z,4.00
2019-04-21T01:18:41.333Z,4.10
2019-04-21T01:21:25.873Z,4.10
2019-04-21T01:24:34.470Z,4.00
2019-04-21T01:28:03.899Z,4.00
2019-04-21T01:30:59.469Z,3.90
2019-04-21T01:34:08.734Z,3.80
2019-04-21T01:37:05.661Z,3.80
2019-04-21T01:40:27.321Z,3.80
2019-04-21T01:43:25.038Z,3.80
2019-04-21T01:46:25.650Z,3.90
2019-04-21T01:49:28.607Z,4.00
2019-04-21T01:52:48.307Z,3.90
2019-04-21T01:55:54.144Z,3.90
2019-04-21T01:58:46.277Z,3.80
2019-04-21T02:02:05.304Z,3.70
2019-04-21T02:05:13.712Z,3.70
2019-04-21T02:08:11.215Z,3.60
2019-04-21T02:11:24.527Z,3.60
2019-04-21T02:14:31.463Z,3.50
2019-04-21T02:17:31.049Z,3.50
2019-04-21T02:20:26.825Z,3.40
2019-04-21T02:23:46.334Z,3.30
2019-04-21T02:26:47.713Z,3.30
2019-04-21T02:29:55.196Z,3.30
2019-04-21T02:33:08.686Z,3.30
2019-04-21T02:42:31.514Z,3.40
2019-04-21T02:45:34.245Z,3.40
2019-04-21T02:48:38.951Z,3.40
2019-04-21T02:51:42.626Z,3.40
2019-04-21T02:57:59.981Z,3.40
2019-04-21T03:01:02.910Z,3.30
2019-04-21T03:04:28.111Z,3.00
2019-04-21T03:07:52.113Z,3.00
2019-04-21T03:10:49.100Z,2.90
2019-04-21T03:16:42.594Z,2.70
2019-04-21T03:20:06.901Z,2.70
2019-04-21T03:26:14.353Z,2.50
2019-04-21T03:29:12.604Z,2.40
2019-04-21T03:36:05.494Z,2.50
2019-04-21T03:38:30.826Z,2.40
2019-04-21T03:41:39.498Z,2.40
2019-04-21T03:44:40.056Z,2.30
2019-04-21T03:51:08.794Z,2.20
2019-04-21T03:53:55.890Z,2.20
2019-04-21T03:57:10.551Z,2.20
2019-04-21T04:00:27.629Z,2.30
2019-04-21T04:06:49.709Z,2.40
2019-04-21T04:10:08.076Z,2.50
2019-04-21T04:13:00.884Z,2.60
2019-04-21T04:16:13.830Z,2.70
2019-04-21T04:19:11.949Z,2.90
2019-04-21T04:22:24.743Z,3.10
2019-04-21T04:25:17.505Z,3.20
2019-04-21T04:28:40.879Z,3.30
2019-04-21T04:34:48.449Z,3.50
2019-04-21T04:37:47.048Z,3.60
2019-04-21T04:40:55.582Z,3.80
2019-04-21T04:44:07.142Z,4.10
2019-04-21T04:47:12.192Z,4.10
2019-04-21T04:50:08.212Z,4.10
2019-04-21T04:53:25.865Z,4.10
2019-04-21T04:56:26.040Z,4.10
2019-04-21T04:59:43.064Z,4.50
2019-04-21T05:06:10.553Z,4.80
2019-04-21T05:12:05.995Z,5.30
2019-04-21T05:18:13.380Z,8.00
2019-04-21T05:21:29.979Z,9.90
2019-04-21T05:24:16.536Z,11.40
2019-04-21T05:27:29.450Z,13.20
2019-04-21T05:31:04.777Z,14.90
2019-04-21T05:34:10.825Z,16.20
2019-04-21T05:37:14.258Z,17.90
2019-04-21T05:40:18.372Z,19.00
2019-04-21T05:43:32.588Z,19.70
2019-04-21T05:46:39.763Z,20.00
2019-04-21T05:49:45.225Z,20.40
2019-04-21T05:52:44.675Z,21.10
2019-04-21T05:56:08.338Z,20.60
2019-04-21T05:59:02.361Z,19.80
2019-04-21T06:02:19.094Z,19.80
2019-04-21T06:05:34.967Z,20.20
2019-04-21T06:08:25.692Z,20.80
2019-04-21T06:11:42.709Z,20.20
2019-04-21T06:14:39.358Z,19.60
2019-04-21T06:17:43.925Z,19.80
2019-04-21T06:20:51.658Z,21.10
2019-04-21T06:23:49.996Z,21.90
2019-04-21T06:30:00.194Z,23.40
2019-04-21T06:33:01.732Z,23.20
2019-04-21T06:39:44.819Z,22.90
2019-04-21T06:42:48.675Z,22.70
2019-04-21T06:45:54.381Z,22.60
2019-04-21T06:48:57.005Z,22.50
2019-04-21T06:52:07.552Z,22.90
2019-04-21T06:58:13.150Z,23.00
2019-04-21T07:01:15.565Z,22.30
2019-04-21T07:07:25.602Z,21.50
2019-04-21T07:10:35.415Z,20.70
2019-04-21T07:13:31.029Z,21.20
2019-04-21T07:16:47.757Z,21.60
2019-04-21T07:19:49.854Z,22.30
2019-04-21T07:22:56.845Z,22.90
2019-04-21T07:25:58.224Z,23.20
2019-04-21T07:29:23.571Z,21.80
2019-04-21T07:32:11.766Z,21.70
2019-04-21T07:35:17.814Z,21.70
2019-04-21T07:38:16.747Z,21.60
2019-04-21T07:41:21.020Z,21.90
2019-04-21T07:44:31.853Z,22.10
2019-04-21T07:47:44.516Z,22.20
2019-04-21T07:50:51.948Z,22.10
2019-04-21T07:54:08.623Z,22.40
2019-04-21T07:56:55.977Z,22.90
2019-04-21T08:03:15.492Z,22.70
2019-04-21T08:06:22.580Z,22.10
2019-04-21T08:09:25.557Z,22.30
2019-04-21T08:12:24.528Z,21.20
2019-04-21T08:15:42.695Z,21.30
2019-04-21T08:18:48.709Z,21.20
2019-04-21T08:25:01.088Z,21.10
2019-04-21T08:27:59.881Z,21.10
2019-04-21T08:31:09.837Z,21.10
2019-04-21T08:34:14.142Z,20.50
2019-04-21T08:37:21.552Z,20.50
2019-04-21T08:40:29.897Z,20.40
2019-04-21T08:43:35.700Z,20.40
2019-04-21T08:46:31.773Z,20.00
2019-04-21T08:49:42.835Z,20.00
2019-04-21T08:52:49.330Z,19.60
2019-04-21T08:56:04.380Z,19.60
2019-04-21T08:59:10.919Z,19.60
2019-04-21T09:02:29.422Z,19.40
2019-04-21T09:05:41.435Z,18.80
2019-04-21T09:08:44.440Z,18.50
2019-04-21T09:11:51.867Z,18.50
2019-04-21T09:14:52.764Z,18.60
2019-04-21T09:17:48.954Z,18.90
2019-04-21T09:21:08.345Z,18.90
2019-04-21T09:24:10.289Z,18.90
2019-04-21T09:27:10.153Z,19.00
2019-04-21T09:30:02.683Z,19.10
2019-04-21T09:33:05.717Z,19.00
2019-04-21T09:36:14.542Z,18.80
2019-04-21T09:39:20.379Z,19.00
2019-04-21T09:42:21.887Z,19.00
2019-04-21T09:45:26.579Z,19.20
2019-04-21T09:48:42.640Z,18.90
2019-04-21T09:51:37.080Z,18.80
2019-04-21T09:54:53.016Z,19.00
2019-04-21T09:57:53.584Z,19.10
2019-04-21T10:01:01.172Z,19.20
2019-04-21T10:04:00.807Z,19.40
2019-04-21T10:07:04.481Z,19.00
2019-04-21T10:10:10.849Z,19.10
2019-04-21T10:13:17.909Z,19.20
2019-04-21T10:16:42.865Z,19.00
2019-04-21T10:19:46.664Z,19.10
2019-04-21T10:22:51.535Z,18.50
2019-04-21T10:26:04.173Z,18.60
2019-04-21T10:29:14.881Z,18.90
2019-04-21T10:32:13.797Z,19.00
2019-04-21T10:35:20.674Z,19.20
2019-04-21T10:38:33.277Z,19.10
2019-04-21T10:41:29.745Z,19.00
2019-04-21T10:44:34.687Z,19.20
2019-04-21T10:47:38.903Z,19.50
2019-04-21T10:50:43.116Z,19.60
2019-04-21T10:53:52.395Z,19.90
2019-04-21T10:56:54.685Z,19.60
2019-04-21T10:59:59.862Z,19.40
2019-04-21T11:03:22.740Z,19.50
2019-04-21T11:06:26.631Z,19.60
2019-04-21T11:09:31.789Z,19.90
2019-04-21T11:12:37.682Z,19.70
2019-04-21T11:15:41.357Z,19.80
2019-04-21T11:18:46.092Z,19.30
2019-04-21T11:21:50.264Z,18.80
2019-04-21T11:24:54.115Z,19.00
2019-04-21T11:27:58.719Z,19.20
2019-04-21T11:31:02.932Z,19.00
2019-04-21T11:34:07.290Z,19.10
2019-04-21T11:37:12.856Z,19.20
2019-04-21T11:40:19.724Z,19.20
2019-04-21T11:43:23.920Z,19.00
2019-04-21T11:46:28.630Z,19.10
2019-04-21T11:49:32.787Z,19.30
2019-04-21T11:52:36.960Z,19.00
2019-04-21T11:55:43.572Z,19.10
2019-04-21T11:58:46.327Z,19.20
2019-04-21T12:01:50.170Z,19.40
2019-04-21T12:04:54.133Z,19.20
2019-04-21T12:07:58.455Z,19.20
2019-04-21T12:11:03.283Z,19.30
2019-04-21T12:14:08.038Z,19.10
2019-04-21T12:17:12.148Z,19.00
2019-04-21T12:20:16.779Z,19.00
2019-04-21T12:23:20.875Z,19.00
2019-04-21T12:26:24.694Z,18.90
2019-04-21T12:29:29.047Z,18.70
2019-04-21T12:32:52.009Z,18.70
2019-04-21T12:35:56.105Z,18.40
2019-04-21T12:39:03.283Z,18.00
2019-04-21T12:42:06.763Z,18.20
2019-04-21T12:45:12.998Z,18.50
2019-04-21T12:48:18.038Z,18.90
2019-04-21T12:51:21.989Z,19.20
2019-04-21T12:54:25.932Z,19.40
2019-04-21T12:57:31.494Z,19.70
2019-04-21T13:00:36.668Z,19.80
2019-04-21T13:03:41.799Z,19.60
2019-04-21T13:06:46.069Z,19.80
2019-04-21T13:09:50.424Z,20.00
2019-04-21T13:12:54.410Z,19.90
2019-04-21T13:15:58.254Z,20.10
2019-04-21T13:19:02.993Z,20.20
2019-04-21T13:22:07.862Z,20.10
2019-04-21T13:25:11.992Z,20.10
2019-04-21T13:28:16.552Z,20.50
2019-04-21T13:31:20.643Z,20.40
2019-04-21T13:34:24.475Z,19.90
2019-04-21T13:37:29.668Z,19.80
2019-04-21T13:41:03.767Z,19.80
2019-04-21T13:43:55.010Z,19.40
2019-04-21T13:46:58.870Z,19.50
2019-04-21T13:50:03.672Z,19.60
2019-04-21T13:53:09.046Z,19.60
2019-04-21T13:56:14.212Z,19.50
2019-04-21T13:59:18.465Z,19.40
2019-04-21T14:02:22.667Z,19.40
2019-04-21T14:05:26.633Z,19.60
2019-04-21T14:08:31.292Z,19.90
2019-04-21T14:11:35.489Z,19.60
2019-04-21T14:14:39.334Z,19.40
2019-04-21T14:17:44.565Z,19.30
2019-04-21T14:20:49.487Z,19.20
2019-04-21T14:23:54.612Z,19.10
2019-04-21T14:26:58.854Z,18.90
2019-04-21T14:30:02.957Z,18.90
2019-04-21T14:33:07.936Z,19.00
2019-04-21T14:36:12.758Z,19.00
2019-04-21T14:39:16.834Z,19.00
2019-04-21T14:42:22.105Z,19.20
2019-04-21T14:45:36.831Z,19.20
2019-04-21T14:48:45.387Z,19.20
2019-04-21T14:51:51.129Z,19.30
2019-04-21T14:54:56.514Z,19.30
2019-04-21T14:58:01.195Z,19.20
2019-04-21T15:01:06.552Z,19.40
2019-04-21T15:04:10.519Z,19.40
2019-04-21T15:07:15.019Z,19.40
2019-04-21T15:10:25.203Z,19.00
2019-04-21T15:13:25.850Z,18.80
2019-04-21T15:16:31.111Z,18.90
2019-04-21T15:19:35.147Z,18.80
2019-04-21T15:22:39.034Z,18.40
2019-04-21T15:25:43.941Z,18.40
2019-04-21T15:28:48.853Z,18.40
2019-04-21T15:31:52.775Z,18.50
2019-04-21T15:34:56.647Z,18.50
2019-04-21T15:38:01.967Z,18.20
2019-04-21T15:41:10.078Z,18.10
2019-04-21T15:44:12.472Z,17.90
2019-04-21T15:47:17.721Z,17.90
2019-04-21T15:50:23.072Z,18.00
2019-04-21T15:53:29.793Z,18.00
2019-04-21T15:56:44.851Z,18.10
2019-04-21T15:59:50.701Z,18.20
2019-04-21T16:02:54.833Z,18.20
2019-04-21T16:05:59.353Z,18.20
2019-04-21T16:09:05.101Z,18.10
2019-04-21T16:12:09.699Z,18.00
2019-04-21T16:15:14.505Z,18.00
2019-04-21T16:18:18.544Z,17.80
2019-04-21T16:21:24.186Z,17.70
2019-04-21T16:24:28.224Z,17.50
2019-04-21T16:27:33.217Z,17.40
2019-04-21T16:30:38.329Z,17.40
2019-04-21T16:33:43.201Z,17.40
2019-04-21T16:36:47.665Z,17.30
2019-04-21T16:39:51.707Z,17.30
2019-04-21T16:42:56.323Z,17.30
2019-04-21T16:46:01.325Z,17.20
2019-04-21T16:49:05.344Z,17.10
2019-04-21T16:52:14.121Z,17.10
2019-04-21T16:55:21.185Z,16.90
2019-04-21T16:58:30.742Z,16.80
2019-04-21T17:01:36.349Z,16.50
2019-04-21T17:04:40.358Z,16.40
2019-04-21T17:07:45.078Z,16.10
2019-04-21T17:11:01.473Z,16.10
2019-04-21T17:13:56.440Z,16.00
2019-04-21T17:17:27.206Z,15.80
2019-04-21T17:20:23.112Z,15.70
2019-04-21T17:23:15.711Z,15.50
2019-04-21T17:26:19.626Z,15.20
2019-04-21T17:29:24.870Z,14.60
2019-04-21T17:32:35.664Z,14.10
2019-04-21T17:35:35.213Z,13.70
2019-04-21T17:38:39.742Z,13.30
2019-04-21T17:42:00.467Z,13.00
2019-04-21T17:44:49.240Z,12.70
2019-04-21T17:47:59.834Z,12.40
2019-04-21T17:51:01.274Z,12.20
2019-04-21T17:54:24.802Z,11.90
2019-04-21T17:57:44.119Z,11.70
2019-04-21T18:01:07.805Z,11.50
2019-04-21T18:04:01.691Z,11.20
2019-04-21T18:06:57.908Z,10.90
2019-04-21T18:10:07.688Z,10.70
2019-04-21T18:13:04.446Z,10.60
2019-04-21T18:16:13.454Z,10.60
2019-04-21T18:19:08.876Z,10.50
2019-04-21T18:22:31.330Z,10.30
2019-04-21T18:25:45.087Z,10.30
2019-04-21T18:28:39.064Z,10.10
2019-04-21T18:31:48.328Z,10.00
2019-04-21T18:34:56.251Z,9.90
2019-04-21T18:38:16.970Z,9.80
2019-04-21T18:41:17.408Z,9.60
2019-04-21T18:44:53.788Z,9.50
2019-04-21T18:47:54.980Z,9.40
2019-04-21T18:51:02.857Z,9.20
2019-04-21T18:54:24.146Z,9.10
2019-04-21T18:57:18.647Z,9.00
2019-04-21T19:00:19.320Z,8.70
2019-04-21T19:03:25.342Z,8.60
2019-04-21T19:06:43.826Z,8.40
2019-04-21T19:13:20.054Z,8.30
2019-04-21T19:16:26.187Z,8.20
2019-04-21T19:19:31.654Z,8.10
2019-04-21T19:22:09.145Z,8.10
2019-04-21T19:25:16.340Z,7.90
2019-04-21T19:28:17.981Z,7.80
2019-04-21T19:31:31.902Z,7.90
2019-04-21T19:34:23.407Z,7.90
2019-04-21T19:37:24.425Z,7.90
2019-04-21T19:40:44.764Z,7.90
2019-04-21T19:43:52.202Z,7.90
2019-04-21T19:46:55.744Z,7.80
2019-04-21T19:50:03.218Z,7.80
2019-04-21T19:52:57.395Z,7.80
2019-04-21T19:55:54.103Z,7.80
2019-04-21T19:58:59.064Z,7.80
2019-04-21T20:02:04.494Z,8.00
2019-04-21T20:05:13.673Z,8.20
2019-04-21T20:08:29.137Z,8.10
2019-04-21T20:11:38.774Z,7.80
2019-04-21T20:14:55.340Z,7.80
2019-04-21T20:17:49.510Z,7.70
2019-04-21T20:20:37.287Z,7.60
2019-04-21T20:23:43.255Z,7.40
2019-04-21T20:26:58.732Z,7.30
2019-04-21T20:30:07.102Z,7.20
2019-04-21T20:33:38.125Z,7.00
2019-04-21T20:36:26.193Z,6.80
2019-04-21T20:39:13.882Z,6.70
2019-04-21T20:42:27.908Z,6.50
2019-04-21T20:45:44.258Z,6.50
2019-04-21T20:48:42.095Z,6.30
2019-04-21T20:52:01.180Z,6.20
2019-04-21T20:54:55.079Z,6.10
2019-04-21T20:57:53.736Z,6.10
2019-04-21T21:01:28.122Z,5.90
2019-04-21T21:04:06.377Z,6.00
2019-04-21T21:07:30.660Z,6.00
2019-04-21T21:10:20.487Z,6.00
2019-04-21T21:13:32.295Z,6.10
2019-04-21T21:16:41.204Z,6.10
2019-04-21T21:19:45.744Z,6.20
2019-04-21T21:22:42.323Z,6.20
2019-04-21T21:25:50.757Z,6.30
2019-04-21T21:28:52.526Z,6.30
2019-04-21T21:32:11.187Z,6.20
2019-04-21T21:35:07.973Z,6.20
2019-04-21T21:38:16.435Z,6.20
2019-04-21T21:41:14.116Z,6.40
2019-04-21T21:44:14.464Z,6.50
2019-04-21T21:47:32.144Z,6.70
2019-04-21T21:50:26.058Z,6.90
2019-04-21T21:53:28.440Z,7.10
2019-04-21T21:56:29.984Z,7.30
2019-04-21T21:59:38.119Z,7.50
2019-04-21T22:02:45.560Z,7.70
2019-04-21T22:05:53.562Z,7.90
2019-04-21T22:08:50.546Z,8.00
2019-04-21T22:11:57.924Z,8.00
2019-04-21T22:15:02.389Z,8.00
2019-04-21T22:18:25.903Z,8.10
2019-04-21T22:21:26.356Z,8.10
2019-04-21T22:24:31.516Z,8.20
2019-04-21T22:27:23.214Z,8.20
2019-04-21T22:30:34.932Z,8.20
2019-04-21T22:33:44.308Z,8.30
2019-04-21T22:36:48.856Z,8.50
2019-04-21T22:39:59.682Z,8.60
2019-04-21T22:42:59.395Z,8.80
2019-04-21T22:45:55.771Z,9.10
2019-04-21T22:49:05.430Z,9.10
2019-04-21T22:52:13.521Z,9.20
2019-04-21T22:55:19.263Z,9.20
2019-04-21T22:58:23.688Z,9.20
2019-04-21T23:01:28.229Z,9.30
2019-04-21T23:04:37.591Z,9.30
2019-04-21T23:07:40.138Z,9.30
2019-04-21T23:10:42.558Z,9.30
2019-04-21T23:13:45.126Z,9.30
2019-04-21T23:16:54.050Z,9.30
2019-04-21T23:20:19.491Z,9.30
2019-04-21T23:23:17.605Z,9.20
2019-04-21T23:26:25.259Z,9.40
2019-04-21T23:29:39.298Z,9.30
2019-04-21T23:32:31.281Z,9.40
2019-04-21T23:35:30.406Z,9.40
2019-04-21T23:38:36.327Z,9.50
2019-04-21T23:41:40.479Z,9.40
2019-04-21T23:44:44.308Z,9.50
2019-04-21T23:47:57.748Z,9.50
2019-04-21T23:50:56.755Z,9.40
2019-04-21T23:53:55.492Z,9.50
2019-04-21T23:57:05.055Z,9.40
